Ana Sayfa
METAR-TAF:

METAR-TAF

Havaalanları :

Tajima, Japonya

Enlem: 35-31N, Boylam: 134-48E, yükseklik: 210 m

Güncel hava durumu gözlemi

Rapor saat 08:00 UTC de 1 saat ve 13 dakika önce yapıldı.
Rüzgar batıdan 6 kt, güneybatı ve batı/kuzeybatı arasında değişken
Sıcaklık 4°C
Nem 87%
Basınç 1012 hPa
Görüş mesafesi: 6000 m
100 ft'den alçaktaaz bulutlu
1500 ft yükseklikte parçalı bulutlu
2000 ft yükseklikte parçalı çok bulutlu
hafif sağanak yağmurlar,

METAR: RJBT 010800Z 26006KT 220V300 6000 -SHRA FEW000 SCT015 BKN020 04/02 Q1012

Saat: 18:13 (09:13 UTC)


TAF: eksik

4.000'den fazla havaalanı için hava durumu gözlemleri ve tahminleri (METAR ve TAF raporları).

Kullanılabilir istasyonlar harita üzerinde sarı ve kırmızı noktalarla gösterilir.

İstasyonun adını görmek için fareyi noktanın üzerinde gezdirin.

Sonrasında hava gözlem ve tahminlerini görmek için tıklayın.

Haritayı değiştirmek için: yaklaştırmak için siyah artı işaretli yeşil düğmeye ve uzaklaştırmak için de eksi işaretli düğmeye hızla tıklayın; bitişik haritalar için yeşil okları kullanın.


METAR-TAF: